الصفحة الرئيسية
METAR-TAF:

METAR-TAF

مطار :

مطار باماكو موديبو كيتا الدولي

باماكو, مالي

دائرة عرض: 12-32N, خط طول: 007-57W, ارتفاع: 380 متر

مراقبة الطقس الحالي

تاريخ ووقت الإصدار 26 دقيقة قبل الساعة 09:00UTC
ريح 18 عقدة من الشرق/الشمال الشرقي
درجة الحرارة 29°درجة مئوية
الرطوبة 11%
ضغط 1016 hPa
الرؤية 10 كم أو أكثر
الغيوم لا تقل 1500 م ولا وجود لمزنة ركامية السحاب الأسود

METAR: GABS 150900Z 06018KT CAVOK 29/M04 Q1016 NOSIG

زمن: 09:26 (09:26 UTC)

توقعات

تاريخ ووقت الإصدار 4ساعات و 26 دقيقة قبل الساعة 05:00UTC
التوقعات صالحة من15 الساعة 06 UTC إلى 16 الساعة 12 UTC
ريح 6 عقدة من الشرق/الشمال الشرقي تتزايد حتى 16 عقدة
الرؤية: 8000 متر
مؤقت
من 15 الساعة 08 UTC إلى 15 الساعة 12 UTC
الرؤية: 4500 متر
غبار,

TAF: GABS 150500Z 1506/1612 06006G16KT 8000 NSC TEMPO 1508/1512 4500 DU

أرصاد الطقس والتوقعات من أكثر من 4000 مطار (تقارير الطقس للمطار METAR والتنبؤ بالطقس بالمطارTAF).

المحطات المتاحة هي النقط الصفراء والحمراء على الخريطة.

حرك المؤشر فوق النقطة لمعرفة اسم المحطة.

ثم انقر لمعرفة أرصاد وتوقعات الطقس.

لتغيير الخارطة: اضغط على الأزرار الخضراء مع رمز الصليب الأسود للتكبير. على الزر الأخضر مع شرطة للتصغير، أو على الأسهم الخضراء للخرائط المجاورة.


METAR-TAF: